Bushong, Kansas
Current Conditions -  °F | °C
As of 6:21 AM on Thursday 23 Oct 2014 (Local Time) from KEMP Reporting Station
Haze Haze  
Wind Chill: 61°   Ceiling: 800
Heat Index: 61°   Visibility: 5mi
Dew Point: 61°   Wind: 7mph
Humidity: 100%   Direction: 180°S
Pressure: 30.08"   Gusts: NA
Location:  38.6329°N, 96.2407°W
Report Text: KEMP 231121Z AUTO 18006KT 5SM BR OVC008 16/16 A3008 RMK AO2 RAE1055 CIG 006V013 P0000 T01610161
Loading
Personal Weather Stations






























Interactive Weather Map
Tropical Storm Tracking
New forecast layout! Learn more

10-Day Weather Forecast

Advertisements
Track Severe Weather on mobile